Alaska Titan — WDE4789 — position and weather

sailwx.info

Track history (hours):
 
Tides and Currents Weather Stations Pressure Air Temp Water Temp Dewpoint Dewpoint Depression Visibility Wind Speed Wind Dir Waves Ship Positions

Alaska Titan

Owner: WESTERN TOWBOAT CO, Seattle, WA. More information available from US FCC via Universal Licensing System and Coast Guard Vessel Documentation Center.

Last reported at 2014-Oct-30 16:16 UTC. Time now 2014-Oct-30 23:48 UTC.
Position N 47°39' W 122°22'.

Length 40 m; draft 6 m.

Type: Tow > 200 m length. MMSI: 367357890.

Date/timePositionNaut miles runAvg speedWind from/ knotsBaromVisibWave heightAir tempDewpointWater temp
2014-Oct-30 16:16N 47°39' W 122°22'0 0.0
2014-Oct-30 16:13N 47°39' W 122°22'1 2.1
2014-Oct-30 15:33N 47°40' W 122°24'0 0.0
2014-Oct-30 15:33N 47°40' W 122°24'5 5.0
2014-Oct-30 14:33N 47°35' W 122°21'0 0.5
2014-Oct-30 14:33N 47°35' W 122°21'1 0.6
2014-Oct-30 13:33N 47°36' W 122°21'0 0.5
2014-Oct-30 13:33N 47°36' W 122°21'3 3.1
2014-Oct-30 12:33N 47°37' W 122°25'0 4.4
2014-Oct-30 12:33N 47°37' W 122°25'4 4.3
2014-Oct-30 11:34N 47°41' W 122°28'0 3.7
2014-Oct-30 11:33N 47°41' W 122°28'4 3.7
2014-Oct-30 10:33N 47°45' W 122°27'0 4.3
2014-Oct-30 10:33N 47°45' W 122°27'4 4.4
2014-Oct-30 09:33N 47°49' W 122°28'0 4.5
2014-Oct-30 09:32N 47°49' W 122°28'5 4.8
2014-Oct-30 08:34N 47°54' W 122°30'0 6.0
2014-Oct-30 08:32N 47°54' W 122°30'4 4.2
2014-Oct-30 07:33N 47°57' W 122°34'5 4.8
2014-Oct-30 06:33N 48°01' W 122°38'5 4.9
2014-Oct-30 05:33N 48°05' W 122°40'6 5.1
2014-Oct-30 04:25N 48°10' W 122°46'7 7.8
2014-Oct-30 03:32N 48°16' W 122°48'9 9.2
2014-Oct-30 02:33N 48°25' W 122°45'1010.0
2014-Oct-30 01:33N 48°35' W 122°45'9 9.4
2014-Oct-30 00:33N 48°44' W 122°47'10 9.7
2014-Oct-29 23:33N 48°50' W 122°60'9 9.2
2014-Oct-29 22:34N 48°56' W 123°10'10 9.9
2014-Oct-29 21:33N 49°02' W 123°22'10 9.4
2014-Oct-29 20:30N 49°09' W 123°33'10 9.5
2014-Oct-29 19:26N 49°15' W 123°45'8 9.0
2014-Oct-29 18:31N 49°21' W 123°54'12 8.9
2014-Oct-29 17:09N 49°29' W 124°08'6 8.3
2014-Oct-29 16:28N 49°32' W 124°15'6 6.9
2014-Oct-29 15:33N 49°35' W 124°24'8 8.1
2014-Oct-29 14:31N 49°39' W 124°35'18 8.9
2014-Oct-29 12:32N 49°51' W 124°56'80 6.1
2014-Oct-28 23:32N 50°34' W 126°41'9 9.1
2014-Oct-28 22:33N 50°40' W 126°51'8 8.1
2014-Oct-28 21:34N 50°44' W 127°02'8 8.2
2014-Oct-28 20:32N 50°49' W 127°13'8 7.9
2014-Oct-28 19:34N 50°54' W 127°22'8 7.7
2014-Oct-28 18:33N 50°58' W 127°32'7 7.5
2014-Oct-28 17:34N 51°03' W 127°41'8 7.5
2014-Oct-28 16:33N 51°09' W 127°50'  
2014-Oct-21 05:00N 59°06' W 140°18'35 8.6 140 / 5992.5 5.4 10.0
2014-Oct-21 01:00N 58°42' W 139°30'   200 / 151002.7 5.4 0.513.9
Track history (hours):
 
Tides and Currents Weather Stations Pressure Air Temp Water Temp Dewpoint Dewpoint Depression Visibility Wind Speed Wind Dir Waves Ship Positions

Alaska Titan

Owner: WESTERN TOWBOAT CO, Seattle, WA. More information available from US FCC via Universal Licensing System and Coast Guard Vessel Documentation Center.

Last reported at 2014-Oct-30 16:16 UTC. Time now 2014-Oct-30 23:48 UTC.
Position N 47°39' W 122°22'.

Length 40 m; draft 6 m.

Type: Tow > 200 m length. MMSI: 367357890.

Date/timePositionNaut miles runAvg speedWind from/ knotsBaromVisibWave heightAir tempDewpointWater temp
2014-Oct-30 16:16N 47°39' W 122°22'0 0.0
2014-Oct-30 16:13N 47°39' W 122°22'1 2.1
2014-Oct-30 15:33N 47°40' W 122°24'0 0.0
2014-Oct-30 15:33N 47°40' W 122°24'5 5.0
2014-Oct-30 14:33N 47°35' W 122°21'0 0.5
2014-Oct-30 14:33N 47°35' W 122°21'1 0.6
2014-Oct-30 13:33N 47°36' W 122°21'0 0.5
2014-Oct-30 13:33N 47°36' W 122°21'3 3.1
2014-Oct-30 12:33N 47°37' W 122°25'0 4.4
2014-Oct-30 12:33N 47°37' W 122°25'4 4.3
2014-Oct-30 11:34N 47°41' W 122°28'0 3.7
2014-Oct-30 11:33N 47°41' W 122°28'4 3.7
2014-Oct-30 10:33N 47°45' W 122°27'0 4.3
2014-Oct-30 10:33N 47°45' W 122°27'4 4.4
2014-Oct-30 09:33N 47°49' W 122°28'0 4.5
2014-Oct-30 09:32N 47°49' W 122°28'5 4.8
2014-Oct-30 08:34N 47°54' W 122°30'0 6.0
2014-Oct-30 08:32N 47°54' W 122°30'4 4.2
2014-Oct-30 07:33N 47°57' W 122°34'5 4.8
2014-Oct-30 06:33N 48°01' W 122°38'5 4.9
2014-Oct-30 05:33N 48°05' W 122°40'6 5.1
2014-Oct-30 04:25N 48°10' W 122°46'7 7.8
2014-Oct-30 03:32N 48°16' W 122°48'9 9.2
2014-Oct-30 02:33N 48°25' W 122°45'1010.0
2014-Oct-30 01:33N 48°35' W 122°45'9 9.4
2014-Oct-30 00:33N 48°44' W 122°47'10 9.7
2014-Oct-29 23:33N 48°50' W 122°60'9 9.2
2014-Oct-29 22:34N 48°56' W 123°10'10 9.9
2014-Oct-29 21:33N 49°02' W 123°22'10 9.4
2014-Oct-29 20:30N 49°09' W 123°33'10 9.5
2014-Oct-29 19:26N 49°15' W 123°45'8 9.0
2014-Oct-29 18:31N 49°21' W 123°54'12 8.9
2014-Oct-29 17:09N 49°29' W 124°08'6 8.3
2014-Oct-29 16:28N 49°32' W 124°15'6 6.9
2014-Oct-29 15:33N 49°35' W 124°24'8 8.1
2014-Oct-29 14:31N 49°39' W 124°35'18 8.9
2014-Oct-29 12:32N 49°51' W 124°56'80 6.1
2014-Oct-28 23:32N 50°34' W 126°41'9 9.1
2014-Oct-28 22:33N 50°40' W 126°51'8 8.1
2014-Oct-28 21:34N 50°44' W 127°02'8 8.2
2014-Oct-28 20:32N 50°49' W 127°13'8 7.9
2014-Oct-28 19:34N 50°54' W 127°22'8 7.7
2014-Oct-28 18:33N 50°58' W 127°32'7 7.5
2014-Oct-28 17:34N 51°03' W 127°41'8 7.5
2014-Oct-28 16:33N 51°09' W 127°50'  
2014-Oct-21 05:00N 59°06' W 140°18'35 8.6 140 / 5992.5 5.4 10.0
2014-Oct-21 01:00N 58°42' W 139°30'   200 / 151002.7 5.4 0.513.9

Dump ship's entire track history